Central Sierra Snow Lab Weather observations

Data are for 10 minute period ending at time listed.
 Day   Time    Incoming  Reflected   Ave.   Ave.    Ave.    Vector  Max.    Ave.    Total    Snow   
  of    of      Solar     Solar      Air    Rel.    Wind    Wind    Wind   Baro.   Precip.   Depth  
Year   Day     Radiation Radiation   Temp.  Humid.  Speed   Dir.    Gust   Press.                   
2014   (PST)    Kw/m2     Kw/m2       F       %      mph     deg.    mph     mb.     in.      in.   
----------------------------------------------------------------------------------------------------
 231   12:30    0.876     999.000     71.2     22     2.5     242     6.7   790.50   14.89   -358.80  
 231   12:40    0.877     999.000     70.6     22     4.0     246     8.7   790.40   14.89   -358.80  
 231   12:50    0.872     999.000     71.0     22     3.2     223     7.5   790.40   14.89   -358.80  
 231   13:00    0.865     999.000     72.0     22     2.7     286     7.6   790.30   14.89   -358.80  
 231   13:10    0.855     999.000     70.9     22     3.7     254    10.8   790.20   14.89   -358.80  
 231   13:20    0.846     999.000     71.6     22     3.0     212     6.8   790.10   14.90   -358.70  
 231   13:30    0.838     999.000     71.8     22     3.6     197    10.8   790.00   14.90   -358.70  
 231   13:40    0.827     999.000     71.4     23     3.8     237    10.6   790.00   14.89   -358.70  
 231   13:50    0.826     999.000     71.7     23     3.9     232    10.7   789.90   14.89   -358.70  
 231   14:00    0.805     999.000     72.2     23     3.1     237     9.9   789.80   14.90   -358.70  
 231   14:10    0.783     999.000     71.3     23     3.9     301    10.1   789.70   14.90   -358.80  
 231   14:20    0.762     999.000     71.8     24     3.8     234    13.2   789.70   14.90   -358.80  
 231   14:30    0.743     999.000     71.8     24     3.6     243    11.1   789.60   14.90   -358.80  
 231   14:40    0.723     999.000     71.9     25     3.3     214     8.1   789.50   14.89   -358.80  
 231   14:50    0.707     999.000     71.7     25     4.3     241    10.1   789.50   14.90   -358.70  
 231   15:00    0.675     999.000     71.0     26     4.6     261    12.2   789.40   14.90   -358.70  
 231   15:10    0.651     999.000     71.0     27     5.0     235    12.1   789.40   14.89   -358.70  
 231   15:20    0.624     999.000     70.9     27     3.8     234    13.8   789.40   14.89   -358.70  
 231   15:30    0.597     999.000     70.4     28     4.2     237    12.6   789.40   14.89   -358.70  
 231   15:40    0.568     999.000     70.2     28     3.7     257     9.8   789.50   14.89   -358.80  
 231   15:50    0.539     999.000     70.1     28     4.7     242    12.7   789.50   14.89   -358.80  
 231   16:00    0.510     999.000     69.3     29     4.4     223    11.9   789.50   14.89   -358.80  
 231   16:10    0.480     999.000     69.6     30     3.1     213     9.4   789.50   14.89   -358.80  
 231   16:20    0.448     999.000     69.3     30     3.9     224    10.1   789.60   14.89   -358.80  
 231   16:30    0.415     999.000     68.9     30     3.5     249     9.1   789.60   14.89   -358.80  
 231   16:40    0.381     999.000     68.5     31     3.4     198     9.7   789.60   14.89   -358.80  
 231   16:50    0.347     999.000     68.1     31     3.4     240    11.4   789.70   14.89   -358.80  
 231   17:00    0.314     999.000     67.9     31     3.5     207     9.0   789.70   14.89   -358.80  
 231   17:10    0.219     999.000     67.1     32     4.2     246    11.4   789.80   14.89   -358.80  
 231   17:20    0.081     999.000     66.7     32     3.5     210    10.2   789.80   14.89   -358.90  
 231   17:30    0.112     999.000     66.5     32     2.7     211     7.3   789.80   14.89   -358.90  
 231   17:40    0.079     999.000     66.0     33     3.5     218     7.8   789.90   14.89   -358.90  
 231   17:50    0.105     999.000     65.4     33     2.6     187     8.7   789.90   14.89   -358.90  
 231   18:00    0.063     999.000     64.8     34     2.9     199     6.8   790.00   14.89   -358.90  
 231   18:10    0.038     999.000     63.8     35     2.2     225     6.8   790.00   14.89   -358.90  
 231   18:20    0.022     999.000     62.9     36     2.6     209     5.5   790.10   14.89   -358.80  
 231   18:30    0.018     999.000     62.2     37     2.4     229     7.6   790.20   14.89   -358.80  
 231   18:40    0.013     999.000     61.6     37     2.6     248     7.7   790.30   14.89   -358.80  
 231   18:50    0.008     999.000     61.0     38     1.8     227     5.7   790.30   14.89   -358.80  
 231   19:00    0.004     999.000     60.3     39     1.1     180     2.7   790.40   14.89   -358.80  
 231   19:10    0.001     999.000     59.3     41     0.9     161     2.1   790.40   14.89   -358.80  
 231   19:20    0.000     999.000     58.4     42     1.1     158     1.7   790.50   14.89   -358.80  
 231   19:30    0.000     999.000     58.0     43     0.7      98     1.7   790.60   14.89   -358.90  
 231   19:40    0.000     999.000     57.2     44     0.4      65     1.4   790.70   14.89   -358.90  
 231   19:50    0.000     999.000     56.3     46     1.1      34     1.9   790.70   14.89   -359.00  
 231   20:00    0.000     999.000     55.4     48     1.6      34     2.8   790.80   14.89   -358.90  
 231   20:10    0.000     999.000     54.8     49     1.4      30     2.1   790.80   14.89   -358.90  
 231   20:20    0.000     999.000     54.2     50     2.0      27     2.6   790.90   14.89   -358.90  
 231   20:30    0.000     999.000     53.7     51     1.6      34     2.5   790.90   14.89   -358.90  
 231   20:40    0.000     999.000     53.3     51     2.0      28     2.8   790.90   14.90   -358.90  
 231   20:50    0.000     999.000     53.0     52     2.0      29     2.8   791.00   14.90   -358.90  
 231   21:00    0.000     999.000     52.6     53     1.9      31     3.0   791.00   14.89   -358.90  
 231   21:10    0.000     999.000     52.3     54     1.9      32     2.9   791.10   14.90   -358.90  
 231   21:20    0.000     999.000     52.1     54     2.0      26     2.9   791.10   14.89   -358.90  
 231   21:30    0.000     999.000     51.8     55     1.2      21     2.3   791.10   14.90   -358.90  
 231   21:40    0.000     999.000     51.4     56     1.6      26     2.7   791.20   14.89   -358.90  
 231   21:50    0.000     999.000     51.0     58     0.1      21     1.4   791.20   14.90   -358.90  
 231   22:00    0.000     999.000     50.5     60     1.3      21     3.2   791.20   14.89   -358.90  
 231   22:10    0.000     999.000     50.1     60     1.0      26     2.2   791.10   14.90   -358.90  
 231   22:20    0.000     999.000     49.9     60     0.5      22     1.9   791.10   14.90   -358.90  
 231   22:30    0.000     999.000     49.6     61     1.9      26     2.9   791.10   14.90   -358.90  
 231   22:40    0.000     999.000     49.5     61     2.4      28     3.6   791.10   14.90   -358.90  
 231   22:50    0.000     999.000     49.4     62     1.9      26     3.1   791.10   14.90   -358.90  
 231   23:00    0.000     999.000     49.1     63     2.0      26     3.1   791.10   14.90   -358.90  
 231   23:10    0.000     999.000     48.9     63     0.0       0     0.0   791.20   14.90   -358.90  
 231   23:20    0.000     999.000     48.5     64     2.0      22     2.8   791.30   14.90   -358.90  
 231   23:30    0.000     999.000     48.3     65     1.6      23     2.3   791.30   14.90   -358.90  
 231   23:40    0.000     999.000     48.0     65     1.7      31     2.7   791.30   14.90   -358.90  
 231   23:50    0.000     999.000     47.8     65     1.2      27     2.6   791.30   14.90   -358.90  
 232    0:00    0.000     999.000     47.7     66     1.4      26     2.1   791.30   14.90   -358.90  
 232    0:10    0.000     999.000     47.5     66     2.5      26     3.2   791.30   14.90   -358.90  
 232    0:20    0.000     999.000     47.6     66     2.9      27     3.9   791.30   14.90   -358.90  
 232    0:30    0.000     999.000     47.6     65     0.5      24     2.3   791.30   14.90   -358.90  
 232    0:40    0.000     999.000     47.3     65     2.3      23     3.2   791.30   14.90   -358.90  
 232    0:50    0.000     999.000     47.2     64     1.6      28     3.1   791.30   14.90   -358.90  
 232    1:00    0.000     999.000     47.1     64     2.5      27     3.6   791.40   14.90   -358.90  
 232    1:10    0.000     999.000     46.9     64     1.9      33     3.8   791.30   14.90   -358.90  
 232    1:20    0.000     999.000     46.7     66     2.0      19     3.0   791.30   14.90   -359.00  
 232    1:30    0.000     999.000     46.5     66     2.2      27     3.4   791.30   14.90   -359.00  
 232    1:40    0.000     999.000     46.2     67     1.1      26     2.5   791.40   14.90   -359.00  
 232    1:50    0.000     999.000     46.0     67     2.0      27     3.0   791.40   14.90   -359.00  
 232    2:00    0.000     999.000     45.8     66     0.8      30     2.1   791.40   14.90   -359.00  
 232    2:10    0.000     999.000     45.6     66     2.0      28     2.9   791.40   14.90   -359.00  
 232    2:20    0.000     999.000     45.4     66     2.3      27     3.2   791.30   14.90   -359.00  
 232    2:30    0.000     999.000     45.3     66     2.2      28     3.3   791.30   14.90   -359.00  
 232    2:40    0.000     999.000     45.0     66     2.2      32     3.4   791.40   14.90   -359.00  
 232    2:50    0.000     999.000     44.9     66     1.6      34     2.9   791.40   14.90   -359.00  
 232    3:00    0.000     999.000     44.9     66     1.4      32     2.7   791.40   14.90   -359.00  
 232    3:10    0.000     999.000     44.9     65     2.5      27     3.5   791.40   14.90   -359.00  
 232    3:20    0.000     999.000     44.8     66     3.0      28     3.7   791.40   14.90   -359.00  
 232    3:30    0.000     999.000     44.6     66     1.5      34     3.7   791.40   14.90   -359.00  
 232    3:40    0.000     999.000     44.5     66     2.7      28     3.4   791.40   14.90   -359.00  
 232    3:50    0.000     999.000     44.3     65     1.4      41     2.7   791.40   14.90   -359.00  
 232    4:00    0.000     999.000     44.2     65     2.7      31     4.2   791.40   14.90   -359.00  
 232    4:10    0.000     999.000     44.3     65     3.6      28     4.2   791.40   14.90   -359.00  
 232    4:20    0.000     999.000     44.1     64     2.4      36     4.3   791.30   14.90   -359.00  
 232    4:30    0.000     999.000     43.9     64     1.3      40     2.2   791.40   14.90   -359.00  
 232    4:40    0.000     999.000     43.8     64     1.6      31     3.3   791.40   14.90   -359.00  
 232    4:50    0.000     999.000     43.7     65     3.2      28     4.0   791.40   14.90   -359.00  
 232    5:00    0.000     999.000     43.6     65     2.6      34     4.1   791.40   14.90   -359.00  
 232    5:10    0.000     999.000     43.5     65     1.6      35     3.2   791.40   14.90   -359.00  
 232    5:20    0.001     999.000     43.4     65     2.4      29     3.3   791.40   14.90   -359.00  
 232    5:30    0.003     999.000     43.4     66     2.0      32     3.6   791.50   14.90   -359.00  
 232    5:40    0.006     999.000     43.6     65     2.8      29     4.0   791.50   14.90   -359.00  
 232    5:50    0.009     999.000     43.8     65     1.4      46     3.2   791.60   14.90   -359.00  
 232    6:00    0.011     999.000     43.9     62     1.3      41     1.9   791.60   14.90   -359.00  
 232    6:10    0.014     999.000     44.1     62     2.0      32     2.9   791.60   14.90   -359.00  
 232    6:20    0.017     999.000     44.4     63     1.5      37     2.9   791.60   14.90   -359.00  
 232    6:30    0.020     999.000     44.7     63     1.3      36     1.8   791.70   14.90   -359.00  
 232    6:40    0.023     999.000     45.2     64     1.2      49     1.7   791.70   14.90   -359.00  
 232    6:50    0.027     999.000     45.9     64     1.0      75     1.8   791.70   14.90   -359.00  
 232    7:00    0.032     999.000     46.9     61     0.9      89     1.5   791.70   14.90   -359.00  
 232    7:10    0.071     999.000     47.9     60     0.4      51     1.2   791.70   14.90   -359.00  
 232    7:20    0.290     999.000     49.6     58     0.1      51     0.9   791.80   14.90   -359.00  
 232    7:30    0.343     999.000     52.7     54     0.0       0     0.0   791.80   14.90   -359.00  
 232    7:40    0.339     999.000     55.8     50     0.6      43     1.5   791.80   14.90   -359.00  
 232    7:50    0.356     999.000     57.6     47     0.0     168     0.9   791.80   14.90   -358.90  
 232    8:00    0.408     999.000     59.4     39     0.0     158     1.0   791.90   14.90   -358.80  
 232    8:10    0.438     999.000     60.6     35     0.1     149     1.8   791.80   14.90   -358.80  
 232    8:20    0.470     999.000     62.1     33     0.9     223     4.0   791.80   14.90   -358.80  
 232    8:30    0.499     999.000     63.1     32     2.0     297     4.0   791.90   14.90   -358.80  
 232    8:40    0.530     999.000     64.1     32     1.0     198     3.1   791.80   14.90   -358.80  
 232    8:50    0.558     999.000     64.8     32     1.9     289     6.8   791.80   14.90   -358.80  
 232    9:00    0.583     999.000     64.8     32     2.9     301     5.5   791.80   14.90   -358.80  
 232    9:10    0.611     999.000     65.5     32     1.8     238     5.4   791.80   14.90   -358.80  
 232    9:20    0.636     999.000     66.0     31     2.0     224     4.3   791.80   14.89   -358.80  
 232    9:30    0.659     999.000     66.3     31     3.0     205     6.5   791.80   14.89   -358.80  
 232    9:40    0.682     999.000     66.9     30     2.5     247     8.0   791.80   14.90   -358.80  
 232    9:50    0.704     999.000     67.4     30     3.4     214     8.0   791.90   14.90   -358.80  
 232   10:00    0.728     999.000     67.5     28     3.6     245     8.4   791.90   14.89   -358.80  
 232   10:10    0.752     999.000     67.9     28     3.0     196     6.1   791.90   14.90   -358.80  
 232   10:20    0.769     999.000     68.4     28     2.9     224     8.2   791.90   14.89   -358.80  
 232   10:30    0.791     999.000     69.3     28     2.7     224     6.2   791.90   14.89   -358.80  
 232   10:40    0.830     999.000     69.0     28     3.9     238    10.6   791.90   14.89   -358.80  
 232   10:50    0.811     999.000     68.9     28     4.0     245     8.6   791.90   14.90   -358.90  
 232   11:00    0.823     999.000     69.2     28     3.6     248     9.1   791.90   14.90   -358.90  
 232   11:10    0.836     999.000     69.4     28     4.4     278    12.6   791.90   14.89   -358.80  
 232   11:20    0.843     999.000     69.2     28     4.7     244    11.7   791.90   14.89   -358.80  
 232   11:30    0.850     999.000     69.7     28     3.3     226    10.6   791.90   14.90   -358.80  
 232   11:40    0.858     999.000     70.3     28     3.2     214     7.9   791.90   14.89   -358.80  
 232   11:50    0.867     999.000     70.7     27     3.3     239     9.4   791.90   14.89   -358.80  
 232   12:00    0.869     999.000     70.1     28     4.2     246    11.2   791.80   14.89   -358.80  
 232   12:10    0.869     999.000     70.4     28     3.9     225    12.2   791.70   14.89   -358.80  
 232   12:20    0.870     999.000     70.5     28     3.2     240     7.9   791.60   14.89   -358.80  

Return to Central Sierra Snow Lab graphs page.


Western Regional Climate Center,wrcc@dri.edu